Bentonville, AR

10:21 PM CDT on August 04, 2015 (GMT -0500)
Bentonville Municipal-Thaden | | Change Station
CLOSE
Current Station
Airport
Location: Bentonville,
Elevation: 1296 ft
Nearby Weather Stations

Elev 1296 ft 36.34 °N, 94.22 °W | Updated 6 minutes ago

Scattered Clouds
Scattered Clouds
73 °F
Feels Like 73 °F
N
7
Wind Variable Wind from ENE

Today
High -- | Low -- °F
--% Chance of Precip.
Yesterday
High -- | Low -- °F
Precip. -- in
6:25 AM 8:19 PM
Waning Gibbous, 72% visible
Pressure 30.02 in
Visibility 10.0 miles
Clouds Few 2900 ft
Few 7500 ft
Scattered Clouds 8500 ft
Dew Point 68 °F
Humidity 83%
Rainfall 0.04 in
Snow Depth Not available.
UV 0 out of 12
Pollen 5.70 out of 12
Air Quality Not available.
Flu Activity Not available.
METAR KVBT 050315Z AUTO 07006KT 10SM FEW029 FEW075 SCT085 23/20 A3002 RMK AO1 P0001

More Conditions Fewer Conditions

Pressure 30.02 in
Visibility 10.0 miles
Clouds Few 2900 ft
Few 7500 ft
Scattered Clouds 8500 ft
Dew Point 68 °F
Humidity 83%
Rainfall 0.04 in
Snow Depth Not available.
UV 0 out of 12
Pollen 5.70 out of 12
Air Quality Not available.
Flu Activity Not available.
METAR KVBT 050315Z AUTO 07006KT 10SM FEW029 FEW075 SCT085 23/20 A3002 RMK AO1 P0001

More Conditions Fewer Conditions

10-Day Weather Forecast

×

Almanac

Astronomy

Aug. 04, 2015 Rise Set
Actual Time
Civil Twilight
Nautical Twilight
Astronomical Twilight
Moon
Length of Visible Light
Length of Day
Tomorrow will be .
, % of the Moon is Illuminated

Today's Extremes

State Highs State Lows

Community

WunderPhotos

Upload Photos

1,844,088 photos uploaded!

WunderBlogs® & News

Nearby

Air Quality

  Air Quality AQ Index Pollutant
Not available.

Snow Depth

Station Depth Elevation

Earthquake Activity

City Distance Mag. Time & Date
Minimum magnitude displayed is 2.5.

Coastal Water Temperatures

Place Temperature

Stations

Nearby Weather Stations

Station Location Temp. Windchill Dew Point Humidity Wind Precip. Elev Updated Type